Hubbard Lake, Michigan
Current Conditions -  °F | °C
As of 4:54 AM on Sunday 26 Oct 2014 (Local Time) from KAPN Reporting Station
Clear Clear  
Wind Chill: 38°   Ceiling: Unl
Heat Index: 46°   Visibility: 10mi
Dew Point: 32°   Wind: 20mph
Humidity: 58%   Direction: 310°NW
Pressure: 29.77"   Gusts: 29mph
Location:  44.87°N, 83.59°W
Report Text: KAPN 260854Z AUTO 31017G25KT 10SM CLR 08/00 A2977 RMK AO2 SLP083 T00780000 51013
Loading
Personal Weather Stations






























Interactive Weather Map
Tropical Storm Tracking
New forecast layout! Learn more

10-Day Weather Forecast

Advertisements
Track Severe Weather on mobile